createdAt,value
2022-10-15T00:01:10.247Z,981.65
2022-10-15T00:06:14.361Z,981.67
2022-10-15T00:11:18.539Z,981.81
2022-10-15T00:16:22.696Z,981.63
2022-10-15T00:21:26.861Z,981.48
2022-10-15T00:26:31.017Z,981.43
2022-10-15T00:31:35.195Z,981.45
2022-10-15T00:36:39.335Z,981.45
2022-10-15T00:41:43.527Z,981.44
2022-10-15T00:46:47.660Z,981.42
2022-10-15T00:51:51.850Z,981.47
2022-10-15T00:56:55.969Z,981.54
2022-10-15T01:02:00.127Z,981.60
2022-10-15T01:07:04.369Z,981.72
2022-10-15T01:12:08.455Z,981.73
2022-10-15T01:17:12.616Z,981.73
2022-10-15T01:22:16.804Z,981.64
2022-10-15T01:27:21.138Z,981.77
2022-10-15T01:32:25.131Z,981.79
2022-10-15T01:37:29.261Z,981.93
2022-10-15T01:42:33.441Z,981.80
2022-10-15T01:47:37.586Z,981.87
2022-10-15T01:52:41.731Z,981.92
2022-10-15T01:57:45.915Z,981.90
2022-10-15T02:02:50.051Z,981.78
2022-10-15T02:07:54.255Z,981.76
2022-10-15T02:12:56.486Z,981.83
2022-10-15T02:18:00.686Z,981.64
2022-10-15T02:23:04.812Z,981.57
2022-10-15T02:28:09.003Z,981.56
2022-10-15T02:33:13.167Z,981.55
2022-10-15T02:38:17.291Z,981.49
2022-10-15T02:43:19.581Z,981.51
2022-10-15T02:48:23.723Z,981.58
2022-10-15T02:53:27.888Z,981.53
2022-10-15T02:58:32.068Z,981.69
2022-10-15T03:03:36.201Z,981.70
2022-10-15T03:08:40.383Z,981.58
2022-10-15T03:13:44.546Z,981.53
2022-10-15T03:18:48.687Z,981.53
2022-10-15T03:23:52.865Z,981.48
2022-10-15T03:28:57.095Z,981.41
2022-10-15T03:34:01.197Z,981.35
2022-10-15T03:39:05.334Z,981.31
2022-10-15T03:44:09.512Z,981.19
2022-10-15T03:49:13.686Z,981.14
2022-10-15T03:54:17.894Z,981.15
2022-10-15T03:59:22.100Z,981.29
2022-10-15T04:04:26.133Z,981.30
2022-10-15T04:09:30.327Z,981.26
2022-10-15T04:14:34.481Z,981.21
2022-10-15T04:19:38.638Z,981.15
2022-10-15T04:24:42.769Z,981.08
2022-10-15T04:29:46.933Z,981.11
2022-10-15T04:34:51.139Z,980.99
2022-10-15T04:39:55.264Z,981.01
2022-10-15T04:44:59.442Z,981.02
2022-10-15T04:50:03.619Z,980.99
2022-10-15T04:55:07.778Z,981.00
2022-10-15T05:00:11.915Z,980.20
2022-10-15T05:05:16.075Z,980.10
2022-10-15T05:10:20.240Z,980.03
2022-10-15T05:15:24.426Z,980.04
2022-10-15T05:20:28.584Z,979.98
2022-10-15T05:25:32.720Z,979.90
2022-10-15T05:30:36.897Z,979.82
2022-10-15T05:35:41.046Z,979.84
2022-10-15T05:40:45.187Z,979.78
2022-10-15T05:45:49.389Z,979.75
2022-10-15T05:50:53.521Z,979.71
2022-10-15T05:55:57.706Z,979.66
2022-10-15T06:01:01.914Z,979.80
2022-10-15T06:06:06.036Z,979.76
2022-10-15T06:11:10.201Z,979.72
2022-10-15T06:16:16.600Z,979.59
2022-10-15T06:21:18.489Z,979.55
2022-10-15T06:26:22.677Z,979.54
2022-10-15T06:31:26.841Z,979.56
2022-10-15T06:36:30.957Z,979.46
2022-10-15T06:41:35.142Z,979.45
2022-10-15T06:46:39.290Z,978.85
2022-10-15T06:51:43.471Z,978.69
2022-10-15T06:56:47.632Z,978.74
2022-10-15T07:01:51.795Z,978.66
2022-10-15T07:06:55.955Z,978.62
2022-10-15T07:12:00.116Z,978.60
2022-10-15T07:17:04.240Z,978.57
2022-10-15T07:22:08.423Z,978.47
2022-10-15T07:27:19.427Z,978.39
2022-10-15T07:32:16.763Z,978.34
2022-10-15T07:37:20.907Z,978.39
2022-10-15T07:42:25.051Z,978.35
2022-10-15T07:47:29.212Z,978.16
2022-10-15T07:52:33.394Z,977.97
2022-10-15T07:57:37.517Z,977.86
2022-10-15T08:02:41.722Z,977.68
2022-10-15T08:07:45.954Z,977.53
2022-10-15T08:12:48.159Z,977.52
2022-10-15T08:17:52.281Z,977.31
2022-10-15T08:22:56.427Z,977.03
2022-10-15T08:28:00.704Z,976.91
2022-10-15T08:33:04.756Z,976.88
2022-10-15T08:38:08.928Z,977.29
2022-10-15T08:43:13.080Z,978.01
2022-10-15T08:48:17.284Z,978.72
2022-10-15T08:53:21.393Z,979.58
2022-10-15T08:58:25.563Z,980.28
2022-10-15T09:03:29.758Z,981.29
2022-10-15T09:08:33.923Z,981.96
2022-10-15T09:13:38.037Z,983.03
2022-10-15T09:18:42.235Z,983.82
2022-10-15T09:23:46.407Z,984.38
2022-10-15T09:28:50.631Z,984.88
2022-10-15T09:33:54.710Z,985.04
2022-10-15T09:38:58.868Z,985.18
2022-10-15T09:44:05.669Z,985.07
2022-10-15T09:49:07.178Z,985.46
2022-10-15T09:54:11.340Z,985.66
2022-10-15T09:59:15.473Z,985.66
2022-10-15T10:04:19.647Z,986.30
2022-10-15T10:09:23.785Z,986.38
2022-10-15T10:14:27.963Z,986.15
2022-10-15T10:19:32.112Z,985.68
2022-10-15T10:24:36.273Z,985.07
2022-10-15T10:29:40.470Z,984.83
2022-10-15T10:34:48.741Z,985.80
2022-10-15T10:39:48.757Z,986.39
2022-10-15T10:44:52.933Z,986.76
2022-10-15T10:49:57.056Z,986.40
2022-10-15T10:55:01.265Z,985.55
2022-10-15T11:00:05.470Z,984.86
2022-10-15T11:05:09.584Z,985.20
2022-10-15T11:10:13.728Z,984.64
2022-10-15T11:15:17.915Z,984.61
2022-10-15T11:20:42.954Z,983.95
2022-10-15T11:25:26.168Z,983.27
2022-10-15T11:30:30.352Z,983.08
2022-10-15T11:35:52.053Z,983.61
2022-10-15T11:40:38.687Z,983.53
2022-10-15T11:45:42.806Z,983.93
2022-10-15T11:50:47.028Z,984.30
2022-10-15T11:55:51.160Z,984.50
2022-10-15T12:00:55.328Z,984.62
2022-10-15T12:05:59.455Z,984.83
2022-10-15T12:11:03.627Z,985.03
2022-10-15T12:16:07.813Z,985.07
2022-10-15T12:21:11.938Z,984.83
2022-10-15T12:26:16.103Z,984.65
2022-10-15T12:31:20.284Z,984.26
2022-10-15T12:36:24.413Z,983.95
2022-10-15T12:41:28.564Z,983.45
2022-10-15T12:46:32.769Z,983.29
2022-10-15T12:51:36.902Z,983.15
2022-10-15T12:56:41.176Z,983.30
2022-10-15T13:01:45.241Z,983.23
2022-10-15T13:06:49.383Z,983.21
2022-10-15T13:11:53.590Z,983.33
2022-10-15T13:16:57.695Z,983.68
2022-10-15T13:22:01.865Z,983.81
2022-10-15T13:27:06.047Z,983.88
2022-10-15T13:32:10.307Z,984.18
2022-10-15T13:37:14.345Z,984.09
2022-10-15T13:42:16.588Z,984.12
2022-10-15T13:47:20.752Z,983.88
2022-10-15T13:52:25.377Z,984.15
2022-10-15T13:57:29.078Z,984.56
2022-10-15T14:02:33.215Z,984.36
2022-10-15T14:07:37.377Z,984.28
2022-10-15T14:12:41.551Z,984.29
2022-10-15T14:17:45.730Z,984.42
2022-10-15T14:22:49.875Z,984.01
2022-10-15T14:27:54.025Z,983.92
2022-10-15T14:32:58.202Z,983.91
2022-10-15T14:38:02.363Z,983.65
2022-10-15T14:43:06.494Z,983.43
2022-10-15T14:48:10.697Z,983.37
2022-10-15T14:53:14.828Z,983.27
2022-10-15T14:58:18.962Z,983.21
2022-10-15T15:03:23.193Z,983.25
2022-10-15T15:08:27.332Z,982.92
2022-10-15T15:13:31.469Z,982.70
2022-10-15T15:18:35.634Z,982.49
2022-10-15T15:23:39.761Z,982.23
2022-10-15T15:28:44.000Z,982.04
2022-10-15T15:33:48.112Z,981.85
2022-10-15T15:38:52.248Z,981.78
2022-10-15T15:43:56.411Z,981.48
2022-10-15T15:49:00.587Z,981.01
2022-10-15T15:54:04.736Z,980.53
2022-10-15T15:59:08.872Z,980.34
2022-10-15T16:04:13.047Z,980.43
2022-10-15T16:09:17.219Z,980.42
2022-10-15T16:14:21.372Z,980.28
2022-10-15T16:19:25.531Z,980.12
2022-10-15T16:24:29.676Z,980.00
2022-10-15T16:29:33.868Z,979.84
2022-10-15T16:34:38.025Z,979.81
2022-10-15T16:39:42.163Z,979.80
2022-10-15T16:44:46.364Z,979.78
2022-10-15T16:49:50.513Z,979.84
2022-10-15T16:54:54.640Z,979.83
2022-10-15T16:59:59.291Z,979.86
2022-10-15T17:05:02.985Z,979.91
2022-10-15T17:10:10.792Z,979.99
2022-10-15T17:15:11.271Z,980.03
2022-10-15T17:20:15.473Z,980.16
2022-10-15T17:25:19.638Z,980.21
2022-10-15T17:30:23.789Z,980.40
2022-10-15T17:35:27.950Z,980.50
2022-10-15T17:40:32.165Z,980.69
2022-10-15T17:45:36.262Z,980.88
2022-10-15T17:50:44.563Z,981.12
2022-10-15T17:55:44.562Z,981.40
2022-10-15T18:00:48.716Z,981.69
2022-10-15T18:05:52.860Z,981.93
2022-10-15T18:10:57.037Z,982.08
2022-10-15T18:16:01.203Z,982.04
2022-10-15T18:21:05.372Z,981.95
2022-10-15T18:26:09.520Z,981.99
2022-10-15T18:31:13.681Z,981.77
2022-10-15T18:36:17.860Z,981.77
2022-10-15T18:41:22.024Z,981.70
2022-10-15T18:46:26.172Z,981.78
2022-10-15T18:51:30.324Z,981.84
2022-10-15T18:56:34.462Z,981.75
2022-10-15T19:01:38.722Z,981.70
2022-10-15T19:06:42.826Z,981.78
2022-10-15T19:11:45.055Z,981.76
2022-10-15T19:16:49.212Z,981.67
2022-10-15T19:21:53.397Z,981.62
2022-10-15T19:26:57.665Z,981.78
2022-10-15T19:32:01.722Z,981.84
2022-10-15T19:37:05.878Z,981.93
2022-10-15T19:42:08.157Z,982.05
2022-10-15T19:47:12.287Z,982.12
2022-10-15T19:52:16.477Z,982.16
2022-10-15T19:57:20.606Z,982.16
2022-10-15T20:02:24.771Z,982.05
2022-10-15T20:07:28.953Z,982.09
2022-10-15T20:12:33.117Z,982.32
2022-10-15T20:17:37.255Z,982.47
2022-10-15T20:22:41.463Z,982.61
2022-10-15T20:27:45.591Z,982.95
2022-10-15T20:32:49.728Z,983.19
2022-10-15T20:37:54.032Z,983.37
2022-10-15T20:42:58.051Z,983.41
2022-10-15T20:48:02.199Z,983.58
2022-10-15T20:53:06.365Z,983.57
2022-10-15T20:58:10.628Z,983.58
2022-10-15T21:03:14.709Z,983.64
2022-10-15T21:08:18.875Z,983.67
2022-10-15T21:13:24.574Z,983.64
2022-10-15T21:18:27.186Z,983.69
2022-10-15T21:23:31.339Z,983.73
2022-10-15T21:28:35.543Z,983.71
2022-10-15T21:33:39.709Z,983.92
2022-10-15T21:38:43.835Z,983.94
2022-10-15T21:43:47.952Z,983.99
2022-10-15T21:48:52.142Z,984.19
2022-10-15T21:53:56.318Z,984.35
2022-10-15T21:59:00.470Z,984.41
2022-10-15T22:04:04.632Z,984.71
2022-10-15T22:09:08.784Z,984.83
2022-10-15T22:14:12.920Z,984.89
2022-10-15T22:19:17.083Z,984.74
2022-10-15T22:24:21.251Z,984.69
2022-10-15T22:34:29.615Z,984.67
2022-10-15T22:39:33.714Z,984.48
2022-10-15T22:44:37.896Z,984.53
2022-10-15T22:49:42.054Z,984.31
2022-10-15T22:54:46.231Z,984.52
2022-10-15T22:59:50.387Z,984.47
2022-10-15T23:04:54.566Z,984.51
2022-10-15T23:09:58.698Z,984.49
2022-10-15T23:15:02.847Z,984.47
2022-10-15T23:20:07.021Z,984.44
2022-10-15T23:25:11.188Z,984.46
2022-10-15T23:30:24.722Z,984.44
2022-10-15T23:35:19.526Z,984.40
2022-10-15T23:40:23.665Z,984.21
2022-10-15T23:45:27.808Z,984.21
2022-10-15T23:50:31.960Z,984.20
2022-10-15T23:55:36.168Z,984.12
